Yorkshire, Pennsylvania
Current Conditions -  °F | °C
As of 3:53 PM on Tuesday 21 Oct 2014 (Local Time) from KTHV Reporting Station
Broken Clouds Broken Clouds  
Wind Chill: 64°   Ceiling: 9000
Heat Index: 64°   Visibility: 10mi
Dew Point: 47°   Wind: 5mph
Humidity: 54%   Direction: 360°N
Pressure: 29.82"   Gusts: NA
Location:  39.9768°N, 76.6853°W
Report Text: KTHV 211953Z AUTO 36004KT 10SM SCT039 BKN090 18/08 A2982 RMK AO2 SLP098 T01780083
Loading
Personal Weather Stations






























Interactive Weather Map
Tropical Storm Tracking
New forecast layout! Learn more

10-Day Weather Forecast

Advertisements
Track Severe Weather on mobile